sensor_id;sensor_type;location;lat;lon;timestamp;P1;durP1;ratioP1;P2;durP2;ratioP2
23434;SDS011;11890;45.380;11.028;2023-09-30T00:02:20;14.57;;;9.43;;
23434;SDS011;11890;45.380;11.028;2023-09-30T00:04:48;15.43;;;9.93;;
23434;SDS011;11890;45.380;11.028;2023-09-30T00:07:16;11.68;;;8.10;;
23434;SDS011;11890;45.380;11.028;2023-09-30T00:09:45;13.20;;;8.73;;
23434;SDS011;11890;45.380;11.028;2023-09-30T00:12:13;14.05;;;9.20;;
23434;SDS011;11890;45.380;11.028;2023-09-30T00:14:42;12.18;;;9.38;;
23434;SDS011;11890;45.380;11.028;2023-09-30T00:17:10;13.57;;;9.25;;
23434;SDS011;11890;45.380;11.028;2023-09-30T00:19:38;13.90;;;9.70;;
23434;SDS011;11890;45.380;11.028;2023-09-30T00:22:06;12.93;;;8.50;;
23434;SDS011;11890;45.380;11.028;2023-09-30T00:24:34;16.20;;;9.13;;
23434;SDS011;11890;45.380;11.028;2023-09-30T00:27:02;17.13;;;8.93;;
23434;SDS011;11890;45.380;11.028;2023-09-30T00:29:31;12.82;;;8.63;;
23434;SDS011;11890;45.380;11.028;2023-09-30T00:31:58;11.95;;;9.05;;
23434;SDS011;11890;45.380;11.028;2023-09-30T00:34:26;17.52;;;9.40;;
23434;SDS011;11890;45.380;11.028;2023-09-30T00:36:54;15.38;;;9.70;;
23434;SDS011;11890;45.380;11.028;2023-09-30T00:39:23;13.52;;;9.75;;
23434;SDS011;11890;45.380;11.028;2023-09-30T00:41:53;14.23;;;9.52;;
23434;SDS011;11890;45.380;11.028;2023-09-30T00:44:22;11.65;;;9.27;;
23434;SDS011;11890;45.380;11.028;2023-09-30T00:46:50;15.52;;;9.52;;
23434;SDS011;11890;45.380;11.028;2023-09-30T00:49:19;13.63;;;10.45;;
23434;SDS011;11890;45.380;11.028;2023-09-30T00:51:47;13.95;;;9.85;;
23434;SDS011;11890;45.380;11.028;2023-09-30T00:54:19;14.32;;;10.32;;
23434;SDS011;11890;45.380;11.028;2023-09-30T00:56:48;13.60;;;10.10;;
23434;SDS011;11890;45.380;11.028;2023-09-30T00:59:17;13.18;;;10.23;;
23434;SDS011;11890;45.380;11.028;2023-09-30T01:01:45;15.77;;;9.75;;
23434;SDS011;11890;45.380;11.028;2023-09-30T01:04:14;11.90;;;9.68;;
23434;SDS011;11890;45.380;11.028;2023-09-30T01:06:42;16.42;;;9.98;;
23434;SDS011;11890;45.380;11.028;2023-09-30T01:09:10;17.52;;;10.63;;
23434;SDS011;11890;45.380;11.028;2023-09-30T01:11:40;14.82;;;9.73;;
23434;SDS011;11890;45.380;11.028;2023-09-30T01:14:24;17.25;;;10.15;;
23434;SDS011;11890;45.380;11.028;2023-09-30T01:16:55;13.95;;;10.57;;
23434;SDS011;11890;45.380;11.028;2023-09-30T01:19:24;12.35;;;9.52;;
23434;SDS011;11890;45.380;11.028;2023-09-30T01:21:56;13.13;;;10.57;;
23434;SDS011;11890;45.380;11.028;2023-09-30T01:24:28;11.13;;;9.73;;
23434;SDS011;11890;45.380;11.028;2023-09-30T01:26:56;15.82;;;11.23;;
23434;SDS011;11890;45.380;11.028;2023-09-30T01:29:25;14.23;;;11.13;;
23434;SDS011;11890;45.380;11.028;2023-09-30T01:31:53;18.35;;;10.90;;
23434;SDS011;11890;45.380;11.028;2023-09-30T01:34:21;17.75;;;11.18;;
23434;SDS011;11890;45.380;11.028;2023-09-30T01:36:50;15.63;;;11.07;;
23434;SDS011;11890;45.380;11.028;2023-09-30T01:39:18;15.27;;;10.90;;
23434;SDS011;11890;45.380;11.028;2023-09-30T01:41:46;16.17;;;11.02;;
23434;SDS011;11890;45.380;11.028;2023-09-30T01:44:14;20.88;;;11.20;;
23434;SDS011;11890;45.380;11.028;2023-09-30T01:46:42;15.38;;;11.80;;
23434;SDS011;11890;45.380;11.028;2023-09-30T01:49:10;14.20;;;10.85;;
23434;SDS011;11890;45.380;11.028;2023-09-30T01:51:38;16.65;;;11.88;;
23434;SDS011;11890;45.380;11.028;2023-09-30T01:54:06;16.83;;;11.70;;
23434;SDS011;11890;45.380;11.028;2023-09-30T01:56:35;14.98;;;11.10;;
23434;SDS011;11890;45.380;11.028;2023-09-30T01:59:03;14.68;;;10.55;;
23434;SDS011;11890;45.380;11.028;2023-09-30T02:01:31;15.75;;;11.90;;
23434;SDS011;11890;45.380;11.028;2023-09-30T02:03:59;13.88;;;11.02;;
23434;SDS011;11890;45.380;11.028;2023-09-30T02:06:28;16.42;;;11.48;;
23434;SDS011;11890;45.380;11.028;2023-09-30T02:08:56;16.85;;;12.10;;
23434;SDS011;11890;45.380;11.028;2023-09-30T02:11:24;15.95;;;12.00;;
23434;SDS011;11890;45.380;11.028;2023-09-30T02:13:52;16.80;;;11.05;;
23434;SDS011;11890;45.380;11.028;2023-09-30T02:16:20;16.20;;;11.52;;
23434;SDS011;11890;45.380;11.028;2023-09-30T02:18:48;18.50;;;11.93;;
23434;SDS011;11890;45.380;11.028;2023-09-30T02:21:18;16.17;;;10.32;;
23434;SDS011;11890;45.380;11.028;2023-09-30T02:23:46;16.65;;;11.43;;
23434;SDS011;11890;45.380;11.028;2023-09-30T02:26:15;15.77;;;11.82;;
23434;SDS011;11890;45.380;11.028;2023-09-30T02:28:44;19.40;;;11.88;;
23434;SDS011;11890;45.380;11.028;2023-09-30T02:31:12;17.13;;;11.68;;
23434;SDS011;11890;45.380;11.028;2023-09-30T02:33:40;16.13;;;11.02;;
23434;SDS011;11890;45.380;11.028;2023-09-30T02:36:08;17.20;;;11.48;;
23434;SDS011;11890;45.380;11.028;2023-09-30T02:38:36;14.48;;;11.63;;
23434;SDS011;11890;45.380;11.028;2023-09-30T02:41:04;15.18;;;10.48;;
23434;SDS011;11890;45.380;11.028;2023-09-30T02:43:32;16.58;;;11.45;;
23434;SDS011;11890;45.380;11.028;2023-09-30T02:46:00;13.43;;;10.35;;
23434;SDS011;11890;45.380;11.028;2023-09-30T02:48:29;15.70;;;10.82;;
23434;SDS011;11890;45.380;11.028;2023-09-30T02:50:57;13.80;;;10.57;;
23434;SDS011;11890;45.380;11.028;2023-09-30T02:53:25;16.50;;;10.82;;
23434;SDS011;11890;45.380;11.028;2023-09-30T02:55:53;17.08;;;11.20;;
23434;SDS011;11890;45.380;11.028;2023-09-30T02:58:24;15.98;;;10.13;;
23434;SDS011;11890;45.380;11.028;2023-09-30T03:00:52;12.50;;;9.70;;
23434;SDS011;11890;45.380;11.028;2023-09-30T03:03:21;17.33;;;10.60;;
23434;SDS011;11890;45.380;11.028;2023-09-30T03:05:52;15.20;;;10.00;;
23434;SDS011;11890;45.380;11.028;2023-09-30T03:08:21;12.88;;;10.20;;
23434;SDS011;11890;45.380;11.028;2023-09-30T03:10:50;13.68;;;10.55;;
23434;SDS011;11890;45.380;11.028;2023-09-30T03:13:19;14.88;;;9.82;;
23434;SDS011;11890;45.380;11.028;2023-09-30T03:15:48;16.23;;;11.15;;
23434;SDS011;11890;45.380;11.028;2023-09-30T03:18:16;19.15;;;10.32;;
23434;SDS011;11890;45.380;11.028;2023-09-30T03:20:44;11.77;;;9.88;;
23434;SDS011;11890;45.380;11.028;2023-09-30T03:23:14;17.27;;;10.65;;
23434;SDS011;11890;45.380;11.028;2023-09-30T03:25:43;13.30;;;10.27;;
23434;SDS011;11890;45.380;11.028;2023-09-30T03:28:11;15.55;;;11.30;;
23434;SDS011;11890;45.380;11.028;2023-09-30T03:30:40;18.67;;;10.90;;
23434;SDS011;11890;45.380;11.028;2023-09-30T03:33:08;16.65;;;10.02;;
23434;SDS011;11890;45.380;11.028;2023-09-30T03:35:36;16.20;;;10.73;;
23434;SDS011;11890;45.380;11.028;2023-09-30T03:38:04;15.55;;;10.65;;
23434;SDS011;11890;45.380;11.028;2023-09-30T03:40:33;17.08;;;11.13;;
23434;SDS011;11890;45.380;11.028;2023-09-30T03:43:05;15.77;;;10.43;;
23434;SDS011;11890;45.380;11.028;2023-09-30T03:45:33;14.95;;;11.02;;
23434;SDS011;11890;45.380;11.028;2023-09-30T03:48:01;13.20;;;10.73;;
23434;SDS011;11890;45.380;11.028;2023-09-30T03:50:29;16.88;;;10.88;;
23434;SDS011;11890;45.380;11.028;2023-09-30T03:53:01;15.63;;;10.02;;
23434;SDS011;11890;45.380;11.028;2023-09-30T03:55:29;15.90;;;9.90;;
23434;SDS011;11890;45.380;11.028;2023-09-30T03:57:59;14.45;;;10.10;;
23434;SDS011;11890;45.380;11.028;2023-09-30T04:00:27;15.35;;;10.60;;
23434;SDS011;11890;45.380;11.028;2023-09-30T04:02:55;14.80;;;11.02;;
23434;SDS011;11890;45.380;11.028;2023-09-30T04:05:26;18.77;;;10.60;;
23434;SDS011;11890;45.380;11.028;2023-09-30T04:07:57;15.98;;;10.23;;
23434;SDS011;11890;45.380;11.028;2023-09-30T04:10:25;17.27;;;10.50;;
23434;SDS011;11890;45.380;11.028;2023-09-30T04:12:53;14.13;;;10.05;;
23434;SDS011;11890;45.380;11.028;2023-09-30T04:15:21;15.30;;;10.60;;
23434;SDS011;11890;45.380;11.028;2023-09-30T04:17:49;14.70;;;10.18;;
23434;SDS011;11890;45.380;11.028;2023-09-30T04:20:18;15.68;;;10.65;;
23434;SDS011;11890;45.380;11.028;2023-09-30T04:22:53;14.10;;;10.20;;
23434;SDS011;11890;45.380;11.028;2023-09-30T04:25:24;18.27;;;10.85;;
23434;SDS011;11890;45.380;11.028;2023-09-30T04:27:53;17.05;;;10.75;;
23434;SDS011;11890;45.380;11.028;2023-09-30T04:30:21;17.08;;;11.02;;
23434;SDS011;11890;45.380;11.028;2023-09-30T04:32:50;15.65;;;10.48;;
23434;SDS011;11890;45.380;11.028;2023-09-30T04:35:18;16.20;;;10.35;;
23434;SDS011;11890;45.380;11.028;2023-09-30T04:37:46;23.55;;;14.48;;
23434;SDS011;11890;45.380;11.028;2023-09-30T04:40:14;19.40;;;12.00;;
23434;SDS011;11890;45.380;11.028;2023-09-30T04:42:49;16.92;;;11.80;;
23434;SDS011;11890;45.380;11.028;2023-09-30T04:45:17;20.25;;;11.30;;
23434;SDS011;11890;45.380;11.028;2023-09-30T04:47:48;14.70;;;10.55;;
23434;SDS011;11890;45.380;11.028;2023-09-30T04:50:16;17.50;;;11.25;;
23434;SDS011;11890;45.380;11.028;2023-09-30T04:52:45;16.35;;;11.05;;
23434;SDS011;11890;45.380;11.028;2023-09-30T04:55:14;17.20;;;11.30;;
23434;SDS011;11890;45.380;11.028;2023-09-30T04:57:44;38.47;;;25.83;;
23434;SDS011;11890;45.380;11.028;2023-09-30T05:00:16;19.40;;;13.25;;
23434;SDS011;11890;45.380;11.028;2023-09-30T05:02:45;21.17;;;12.73;;
23434;SDS011;11890;45.380;11.028;2023-09-30T05:05:13;19.98;;;11.70;;
23434;SDS011;11890;45.380;11.028;2023-09-30T05:07:42;22.67;;;12.60;;
23434;SDS011;11890;45.380;11.028;2023-09-30T05:10:11;17.13;;;11.77;;
23434;SDS011;11890;45.380;11.028;2023-09-30T05:12:43;17.45;;;12.05;;
23434;SDS011;11890;45.380;11.028;2023-09-30T05:15:15;19.15;;;12.15;;
23434;SDS011;11890;45.380;11.028;2023-09-30T05:17:45;21.30;;;11.82;;
23434;SDS011;11890;45.380;11.028;2023-09-30T05:20:14;21.77;;;12.20;;
23434;SDS011;11890;45.380;11.028;2023-09-30T05:22:47;19.67;;;12.32;;
23434;SDS011;11890;45.380;11.028;2023-09-30T05:25:16;17.13;;;11.02;;
23434;SDS011;11890;45.380;11.028;2023-09-30T05:27:45;17.60;;;11.68;;
23434;SDS011;11890;45.380;11.028;2023-09-30T05:30:17;13.98;;;11.38;;
23434;SDS011;11890;45.380;11.028;2023-09-30T05:32:47;16.65;;;12.00;;
23434;SDS011;11890;45.380;11.028;2023-09-30T05:35:15;18.30;;;12.32;;
23434;SDS011;11890;45.380;11.028;2023-09-30T05:37:45;21.38;;;12.73;;
23434;SDS011;11890;45.380;11.028;2023-09-30T05:40:13;23.95;;;14.25;;
23434;SDS011;11890;45.380;11.028;2023-09-30T05:42:57;19.25;;;13.90;;
23434;SDS011;11890;45.380;11.028;2023-09-30T05:45:27;21.20;;;13.90;;
23434;SDS011;11890;45.380;11.028;2023-09-30T05:47:55;18.33;;;12.20;;
23434;SDS011;11890;45.380;11.028;2023-09-30T05:50:26;19.13;;;12.70;;
23434;SDS011;11890;45.380;11.028;2023-09-30T05:52:54;20.20;;;11.85;;
23434;SDS011;11890;45.380;11.028;2023-09-30T05:55:23;21.83;;;11.75;;
23434;SDS011;11890;45.380;11.028;2023-09-30T05:57:53;20.63;;;12.68;;
23434;SDS011;11890;45.380;11.028;2023-09-30T06:00:22;18.63;;;12.30;;
23434;SDS011;11890;45.380;11.028;2023-09-30T06:03:02;18.48;;;12.68;;
23434;SDS011;11890;45.380;11.028;2023-09-30T06:05:34;16.35;;;11.63;;
23434;SDS011;11890;45.380;11.028;2023-09-30T06:08:08;20.25;;;12.05;;
23434;SDS011;11890;45.380;11.028;2023-09-30T06:10:41;20.15;;;12.82;;
23434;SDS011;11890;45.380;11.028;2023-09-30T06:13:13;19.60;;;12.57;;
23434;SDS011;11890;45.380;11.028;2023-09-30T06:15:42;23.35;;;12.82;;
23434;SDS011;11890;45.380;11.028;2023-09-30T06:18:11;22.13;;;13.45;;
23434;SDS011;11890;45.380;11.028;2023-09-30T06:20:42;20.25;;;13.57;;
23434;SDS011;11890;45.380;11.028;2023-09-30T06:23:10;22.25;;;13.75;;
23434;SDS011;11890;45.380;11.028;2023-09-30T06:25:38;19.13;;;14.35;;
23434;SDS011;11890;45.380;11.028;2023-09-30T06:28:07;19.42;;;13.52;;
23434;SDS011;11890;45.380;11.028;2023-09-30T06:30:35;22.73;;;15.13;;
23434;SDS011;11890;45.380;11.028;2023-09-30T06:36:00;75.55;;;21.83;;
23434;SDS011;11890;45.380;11.028;2023-09-30T06:38:29;21.33;;;15.38;;
23434;SDS011;11890;45.380;11.028;2023-09-30T06:40:57;19.92;;;15.98;;
23434;SDS011;11890;45.380;11.028;2023-09-30T06:43:25;24.02;;;15.48;;
23434;SDS011;11890;45.380;11.028;2023-09-30T06:45:53;21.38;;;15.55;;
23434;SDS011;11890;45.380;11.028;2023-09-30T06:48:21;23.33;;;15.48;;
23434;SDS011;11890;45.380;11.028;2023-09-30T06:50:49;20.55;;;14.60;;
23434;SDS011;11890;45.380;11.028;2023-09-30T06:53:19;19.35;;;15.13;;
23434;SDS011;11890;45.380;11.028;2023-09-30T06:55:48;28.27;;;16.02;;
23434;SDS011;11890;45.380;11.028;2023-09-30T06:58:18;20.27;;;14.65;;
23434;SDS011;11890;45.380;11.028;2023-09-30T07:00:51;25.40;;;16.17;;
23434;SDS011;11890;45.380;11.028;2023-09-30T07:03:23;20.73;;;12.85;;
23434;SDS011;11890;45.380;11.028;2023-09-30T07:05:53;20.10;;;13.70;;
23434;SDS011;11890;45.380;11.028;2023-09-30T07:08:21;38.88;;;26.85;;
23434;SDS011;11890;45.380;11.028;2023-09-30T07:10:49;62.88;;;48.38;;
23434;SDS011;11890;45.380;11.028;2023-09-30T07:13:22;18.30;;;14.07;;
23434;SDS011;11890;45.380;11.028;2023-09-30T07:15:50;15.77;;;12.60;;
23434;SDS011;11890;45.380;11.028;2023-09-30T07:18:19;20.63;;;13.82;;
23434;SDS011;11890;45.380;11.028;2023-09-30T07:20:48;19.27;;;12.68;;
23434;SDS011;11890;45.380;11.028;2023-09-30T07:23:16;21.48;;;13.32;;
23434;SDS011;11890;45.380;11.028;2023-09-30T07:25:47;20.95;;;13.75;;
23434;SDS011;11890;45.380;11.028;2023-09-30T07:28:15;17.42;;;12.30;;
23434;SDS011;11890;45.380;11.028;2023-09-30T07:30:44;18.17;;;14.00;;
23434;SDS011;11890;45.380;11.028;2023-09-30T07:33:12;18.38;;;13.40;;
23434;SDS011;11890;45.380;11.028;2023-09-30T07:35:40;18.42;;;12.15;;
23434;SDS011;11890;45.380;11.028;2023-09-30T07:38:08;44.65;;;32.13;;
23434;SDS011;11890;45.380;11.028;2023-09-30T07:40:36;43.70;;;28.05;;
23434;SDS011;11890;45.380;11.028;2023-09-30T07:43:04;22.17;;;12.82;;
23434;SDS011;11890;45.380;11.028;2023-09-30T07:45:32;19.25;;;11.85;;
23434;SDS011;11890;45.380;11.028;2023-09-30T07:48:00;20.20;;;11.70;;
23434;SDS011;11890;45.380;11.028;2023-09-30T07:50:32;18.80;;;9.90;;
23434;SDS011;11890;45.380;11.028;2023-09-30T07:53:01;17.20;;;10.88;;
23434;SDS011;11890;45.380;11.028;2023-09-30T07:55:29;16.27;;;10.73;;
23434;SDS011;11890;45.380;11.028;2023-09-30T07:57:57;18.05;;;11.18;;
23434;SDS011;11890;45.380;11.028;2023-09-30T08:00:26;18.42;;;10.38;;
23434;SDS011;11890;45.380;11.028;2023-09-30T08:02:54;17.48;;;10.95;;
23434;SDS011;11890;45.380;11.028;2023-09-30T08:05:23;13.20;;;10.27;;
23434;SDS011;11890;45.380;11.028;2023-09-30T08:07:51;17.27;;;10.35;;
23434;SDS011;11890;45.380;11.028;2023-09-30T08:10:19;16.73;;;11.23;;
23434;SDS011;11890;45.380;11.028;2023-09-30T08:12:47;19.25;;;12.52;;
23434;SDS011;11890;45.380;11.028;2023-09-30T08:15:17;17.40;;;10.27;;
23434;SDS011;11890;45.380;11.028;2023-09-30T08:17:47;12.20;;;9.38;;
23434;SDS011;11890;45.380;11.028;2023-09-30T08:20:15;13.18;;;8.40;;
23434;SDS011;11890;45.380;11.028;2023-09-30T08:22:43;14.98;;;8.45;;
23434;SDS011;11890;45.380;11.028;2023-09-30T08:25:12;15.77;;;10.10;;
23434;SDS011;11890;45.380;11.028;2023-09-30T08:27:41;22.83;;;11.15;;
23434;SDS011;11890;45.380;11.028;2023-09-30T08:30:09;18.80;;;11.07;;
23434;SDS011;11890;45.380;11.028;2023-09-30T08:32:37;18.92;;;12.32;;
23434;SDS011;11890;45.380;11.028;2023-09-30T08:35:06;18.15;;;11.88;;
23434;SDS011;11890;45.380;11.028;2023-09-30T08:37:35;17.70;;;10.93;;
23434;SDS011;11890;45.380;11.028;2023-09-30T08:40:03;14.02;;;9.77;;
23434;SDS011;11890;45.380;11.028;2023-09-30T08:42:32;15.23;;;10.35;;
23434;SDS011;11890;45.380;11.028;2023-09-30T08:45:03;15.43;;;10.70;;
23434;SDS011;11890;45.380;11.028;2023-09-30T08:47:33;21.55;;;11.23;;
23434;SDS011;11890;45.380;11.028;2023-09-30T08:50:02;13.95;;;11.13;;
23434;SDS011;11890;45.380;11.028;2023-09-30T08:52:37;15.82;;;9.88;;
23434;SDS011;11890;45.380;11.028;2023-09-30T08:55:07;17.48;;;10.90;;
23434;SDS011;11890;45.380;11.028;2023-09-30T08:57:37;15.90;;;11.35;;
23434;SDS011;11890;45.380;11.028;2023-09-30T09:00:10;22.07;;;11.63;;
23434;SDS011;11890;45.380;11.028;2023-09-30T09:02:39;21.10;;;11.30;;
23434;SDS011;11890;45.380;11.028;2023-09-30T09:05:07;20.05;;;14.23;;
23434;SDS011;11890;45.380;11.028;2023-09-30T09:07:36;19.85;;;11.95;;
23434;SDS011;11890;45.380;11.028;2023-09-30T09:10:11;17.25;;;9.13;;
23434;SDS011;11890;45.380;11.028;2023-09-30T09:12:42;17.17;;;10.43;;
23434;SDS011;11890;45.380;11.028;2023-09-30T09:15:22;18.52;;;11.18;;
23434;SDS011;11890;45.380;11.028;2023-09-30T09:17:51;17.38;;;12.07;;
23434;SDS011;11890;45.380;11.028;2023-09-30T09:20:20;18.58;;;11.32;;
23434;SDS011;11890;45.380;11.028;2023-09-30T09:22:50;22.80;;;11.68;;
23434;SDS011;11890;45.380;11.028;2023-09-30T09:25:20;19.30;;;13.80;;
23434;SDS011;11890;45.380;11.028;2023-09-30T09:27:52;20.70;;;11.77;;
23434;SDS011;11890;45.380;11.028;2023-09-30T09:30:22;17.75;;;11.63;;
23434;SDS011;11890;45.380;11.028;2023-09-30T09:35:22;17.20;;;11.48;;
23434;SDS011;11890;45.380;11.028;2023-09-30T09:40:25;15.95;;;12.27;;
23434;SDS011;11890;45.380;11.028;2023-09-30T09:42:53;16.10;;;12.13;;
23434;SDS011;11890;45.380;11.028;2023-09-30T09:45:24;18.48;;;13.45;;
23434;SDS011;11890;45.380;11.028;2023-09-30T09:47:52;22.05;;;13.77;;
23434;SDS011;11890;45.380;11.028;2023-09-30T09:50:21;25.63;;;14.90;;
23434;SDS011;11890;45.380;11.028;2023-09-30T09:52:51;23.20;;;13.82;;
23434;SDS011;11890;45.380;11.028;2023-09-30T09:55:26;21.40;;;14.45;;
23434;SDS011;11890;45.380;11.028;2023-09-30T09:57:54;21.50;;;14.05;;
23434;SDS011;11890;45.380;11.028;2023-09-30T10:00:24;19.15;;;13.35;;
23434;SDS011;11890;45.380;11.028;2023-09-30T10:02:52;17.80;;;14.13;;
23434;SDS011;11890;45.380;11.028;2023-09-30T10:05:20;18.92;;;12.70;;
23434;SDS011;11890;45.380;11.028;2023-09-30T10:07:54;25.27;;;14.35;;
23434;SDS011;11890;45.380;11.028;2023-09-30T10:10:23;17.95;;;12.50;;
23434;SDS011;11890;45.380;11.028;2023-09-30T10:12:51;20.35;;;13.15;;
23434;SDS011;11890;45.380;11.028;2023-09-30T10:17:57;22.20;;;13.60;;
23434;SDS011;11890;45.380;11.028;2023-09-30T10:20:30;17.15;;;11.50;;
23434;SDS011;11890;45.380;11.028;2023-09-30T10:25:46;17.45;;;11.90;;
23434;SDS011;11890;45.380;11.028;2023-09-30T10:31:15;16.42;;;10.02;;
23434;SDS011;11890;45.380;11.028;2023-09-30T10:36:12;17.73;;;10.95;;
23434;SDS011;11890;45.380;11.028;2023-09-30T10:38:43;17.85;;;11.25;;
23434;SDS011;11890;45.380;11.028;2023-09-30T10:41:13;17.13;;;10.27;;
23434;SDS011;11890;45.380;11.028;2023-09-30T10:44:14;16.08;;;11.40;;
23434;SDS011;11890;45.380;11.028;2023-09-30T10:46:48;15.93;;;9.40;;
23434;SDS011;11890;45.380;11.028;2023-09-30T10:54:23;14.80;;;8.55;;
23434;SDS011;11890;45.380;11.028;2023-09-30T10:56:51;16.37;;;8.87;;
23434;SDS011;11890;45.380;11.028;2023-09-30T10:59:23;12.95;;;9.55;;
23434;SDS011;11890;45.380;11.028;2023-09-30T11:01:51;12.15;;;9.27;;
23434;SDS011;11890;45.380;11.028;2023-09-30T11:04:23;16.05;;;10.10;;
23434;SDS011;11890;45.380;11.028;2023-09-30T11:06:59;13.18;;;9.18;;
23434;SDS011;11890;45.380;11.028;2023-09-30T11:09:29;13.88;;;8.55;;
23434;SDS011;11890;45.380;11.028;2023-09-30T11:11:57;9.85;;;7.90;;
23434;SDS011;11890;45.380;11.028;2023-09-30T11:14:28;13.60;;;8.52;;
23434;SDS011;11890;45.380;11.028;2023-09-30T11:16:58;10.35;;;7.72;;
23434;SDS011;11890;45.380;11.028;2023-09-30T11:19:34;14.35;;;8.52;;
23434;SDS011;11890;45.380;11.028;2023-09-30T11:22:02;14.80;;;7.68;;
23434;SDS011;11890;45.380;11.028;2023-09-30T11:24:35;10.25;;;7.25;;
23434;SDS011;11890;45.380;11.028;2023-09-30T11:27:03;16.63;;;8.48;;
23434;SDS011;11890;45.380;11.028;2023-09-30T11:29:31;10.80;;;8.40;;
23434;SDS011;11890;45.380;11.028;2023-09-30T11:31:59;10.63;;;8.57;;
23434;SDS011;11890;45.380;11.028;2023-09-30T11:34:35;10.30;;;7.85;;
23434;SDS011;11890;45.380;11.028;2023-09-30T11:37:04;13.55;;;8.18;;
23434;SDS011;11890;45.380;11.028;2023-09-30T11:39:33;12.43;;;7.53;;
23434;SDS011;11890;45.380;11.028;2023-09-30T11:42:15;13.43;;;8.52;;
23434;SDS011;11890;45.380;11.028;2023-09-30T11:44:44;16.38;;;8.68;;
23434;SDS011;11890;45.380;11.028;2023-09-30T11:47:14;11.00;;;7.22;;
23434;SDS011;11890;45.380;11.028;2023-09-30T11:49:43;10.13;;;6.55;;
23434;SDS011;11890;45.380;11.028;2023-09-30T11:52:16;10.02;;;6.18;;
23434;SDS011;11890;45.380;11.028;2023-09-30T11:54:53;10.65;;;6.85;;
23434;SDS011;11890;45.380;11.028;2023-09-30T11:57:23;10.50;;;6.57;;
23434;SDS011;11890;45.380;11.028;2023-09-30T11:59:51;9.02;;;6.85;;
23434;SDS011;11890;45.380;11.028;2023-09-30T12:02:19;8.52;;;6.35;;
23434;SDS011;11890;45.380;11.028;2023-09-30T12:04:47;14.00;;;6.97;;
23434;SDS011;11890;45.380;11.028;2023-09-30T12:07:16;9.35;;;6.78;;
23434;SDS011;11890;45.380;11.028;2023-09-30T12:09:44;12.68;;;7.85;;
23434;SDS011;11890;45.380;11.028;2023-09-30T12:12:12;9.13;;;7.53;;
23434;SDS011;11890;45.380;11.028;2023-09-30T12:14:41;11.50;;;7.85;;
23434;SDS011;11890;45.380;11.028;2023-09-30T12:17:09;11.32;;;7.47;;
23434;SDS011;11890;45.380;11.028;2023-09-30T12:19:40;13.15;;;8.25;;
23434;SDS011;11890;45.380;11.028;2023-09-30T12:22:10;12.73;;;7.85;;
23434;SDS011;11890;45.380;11.028;2023-09-30T12:24:38;12.98;;;9.10;;
23434;SDS011;11890;45.380;11.028;2023-09-30T12:27:07;11.25;;;8.55;;
23434;SDS011;11890;45.380;11.028;2023-09-30T12:29:35;9.68;;;6.85;;
23434;SDS011;11890;45.380;11.028;2023-09-30T12:32:06;14.20;;;7.68;;
23434;SDS011;11890;45.380;11.028;2023-09-30T12:34:34;10.38;;;5.78;;
23434;SDS011;11890;45.380;11.028;2023-09-30T12:37:03;10.25;;;7.32;;
23434;SDS011;11890;45.380;11.028;2023-09-30T12:39:31;14.93;;;7.38;;
23434;SDS011;11890;45.380;11.028;2023-09-30T12:42:00;10.13;;;6.85;;
23434;SDS011;11890;45.380;11.028;2023-09-30T12:44:29;8.45;;;6.38;;
23434;SDS011;11890;45.380;11.028;2023-09-30T12:46:56;7.88;;;5.90;;
23434;SDS011;11890;45.380;11.028;2023-09-30T12:49:24;9.98;;;5.93;;
23434;SDS011;11890;45.380;11.028;2023-09-30T12:51:53;9.43;;;6.53;;
23434;SDS011;11890;45.380;11.028;2023-09-30T12:54:21;9.27;;;6.53;;
23434;SDS011;11890;45.380;11.028;2023-09-30T12:56:49;11.48;;;6.25;;
23434;SDS011;11890;45.380;11.028;2023-09-30T12:59:18;9.60;;;6.18;;
23434;SDS011;11890;45.380;11.028;2023-09-30T13:01:47;13.43;;;5.82;;
23434;SDS011;11890;45.380;11.028;2023-09-30T13:04:15;10.30;;;6.32;;
23434;SDS011;11890;45.380;11.028;2023-09-30T13:06:46;10.70;;;6.03;;
23434;SDS011;11890;45.380;11.028;2023-09-30T13:09:16;8.37;;;5.67;;
23434;SDS011;11890;45.380;11.028;2023-09-30T13:11:44;7.90;;;6.53;;
23434;SDS011;11890;45.380;11.028;2023-09-30T13:14:11;8.60;;;5.65;;
23434;SDS011;11890;45.380;11.028;2023-09-30T13:16:40;7.65;;;5.25;;
23434;SDS011;11890;45.380;11.028;2023-09-30T13:19:08;9.25;;;6.05;;
23434;SDS011;11890;45.380;11.028;2023-09-30T13:21:36;10.98;;;5.55;;
23434;SDS011;11890;45.380;11.028;2023-09-30T13:24:04;15.65;;;6.55;;
23434;SDS011;11890;45.380;11.028;2023-09-30T13:26:34;8.75;;;5.78;;
23434;SDS011;11890;45.380;11.028;2023-09-30T13:29:04;10.97;;;5.90;;
23434;SDS011;11890;45.380;11.028;2023-09-30T13:31:32;7.65;;;5.63;;
23434;SDS011;11890;45.380;11.028;2023-09-30T13:34:00;11.70;;;5.68;;
23434;SDS011;11890;45.380;11.028;2023-09-30T13:36:30;9.32;;;5.38;;
23434;SDS011;11890;45.380;11.028;2023-09-30T13:38:58;6.68;;;4.88;;
23434;SDS011;11890;45.380;11.028;2023-09-30T13:41:26;10.32;;;5.10;;
23434;SDS011;11890;45.380;11.028;2023-09-30T13:43:54;8.43;;;5.00;;
23434;SDS011;11890;45.380;11.028;2023-09-30T13:46:22;8.88;;;5.15;;
23434;SDS011;11890;45.380;11.028;2023-09-30T13:48:53;9.40;;;5.78;;
23434;SDS011;11890;45.380;11.028;2023-09-30T13:51:21;8.48;;;5.35;;
23434;SDS011;11890;45.380;11.028;2023-09-30T13:53:49;7.47;;;6.35;;
23434;SDS011;11890;45.380;11.028;2023-09-30T13:56:18;7.80;;;5.65;;
23434;SDS011;11890;45.380;11.028;2023-09-30T13:58:46;10.20;;;5.65;;
23434;SDS011;11890;45.380;11.028;2023-09-30T14:01:14;9.13;;;5.78;;
23434;SDS011;11890;45.380;11.028;2023-09-30T14:03:42;9.00;;;5.57;;
23434;SDS011;11890;45.380;11.028;2023-09-30T14:06:10;12.75;;;5.45;;
23434;SDS011;11890;45.380;11.028;2023-09-30T14:08:42;10.18;;;5.28;;
23434;SDS011;11890;45.380;11.028;2023-09-30T14:11:10;10.25;;;5.90;;
23434;SDS011;11890;45.380;11.028;2023-09-30T14:13:39;7.53;;;5.40;;
23434;SDS011;11890;45.380;11.028;2023-09-30T14:16:07;10.77;;;5.85;;
23434;SDS011;11890;45.380;11.028;2023-09-30T14:18:35;13.73;;;6.30;;
23434;SDS011;11890;45.380;11.028;2023-09-30T14:21:03;10.15;;;5.75;;
23434;SDS011;11890;45.380;11.028;2023-09-30T14:23:31;13.35;;;5.78;;
23434;SDS011;11890;45.380;11.028;2023-09-30T14:26:00;9.10;;;6.43;;
23434;SDS011;11890;45.380;11.028;2023-09-30T14:28:31;7.10;;;5.32;;
23434;SDS011;11890;45.380;11.028;2023-09-30T14:31:02;7.05;;;5.25;;
23434;SDS011;11890;45.380;11.028;2023-09-30T14:33:31;8.45;;;5.70;;
23434;SDS011;11890;45.380;11.028;2023-09-30T14:35:59;8.15;;;6.20;;
23434;SDS011;11890;45.380;11.028;2023-09-30T14:38:27;11.60;;;5.82;;
23434;SDS011;11890;45.380;11.028;2023-09-30T14:40:55;6.97;;;5.32;;
23434;SDS011;11890;45.380;11.028;2023-09-30T14:43:23;11.15;;;5.40;;
23434;SDS011;11890;45.380;11.028;2023-09-30T14:45:52;12.80;;;5.53;;
23434;SDS011;11890;45.380;11.028;2023-09-30T14:48:20;10.35;;;5.45;;
23434;SDS011;11890;45.380;11.028;2023-09-30T14:50:49;9.88;;;5.47;;
23434;SDS011;11890;45.380;11.028;2023-09-30T14:53:17;11.13;;;5.50;;